Devizes, United Kingdom
Current Conditions -  °F | °C
As of 3:50 AM on Saturday 25 Oct 2014 (Local Time) from EGDM Reporting Station
Overcast Overcast  
Wind Chill: 48°   Ceiling: 3300
Heat Index: 48°   Visibility: 6mi
Dew Point: 46°   Wind: 3mph
Humidity: 93%   Direction: 190°S
Pressure: 30"   Gusts: NA
Location:  51.35°N, 1.99°W
Report Text: EGDM 250250Z AUTO 19003KT 9999 OVC033/// 09/08 Q1016
Loading
Personal Weather Stations






























Interactive Weather Map
Tropical Storm Tracking
New forecast layout! Learn more

10-Day Weather Forecast

Advertisements
Track Severe Weather on mobile